General Aviation Weather

Text Reports

Enter one or more of the following location identifiers separated by a space:

Zip Code, Four-Character ICAO or Three-Character IATA airport codes.

METAR - Aviation Routine Weather Report
KIZG - Fryeburg, Maine
Updated at 9:05 AM GMT on February 09, 2016 (4:05 AM EST):
SPECI KIZG 090905Z AUTO 35004KT 3SM -SN BR OVC023 M07/M09 A2974 RMK AO2 P0001 T10721094
TAF - Terminal Area Forecast
KIZG - Fryeburg, Maine
Updated at 9:05 AM GMT on February 09, 2016 (4:05 AM EST):
No TAF is currently available for this location.
Decoded:
No decoded TAF is available.
PIREP - Pilot Weather Report
KIZG - Fryeburg, Maine
Updated at 9:05 AM GMT on February 09, 2016 (4:05 AM EST):
No PIREP is currently available for this location.
AIRMET - Airmens Meteorological Information
KIZG - Fryeburg, Maine
Updated at 9:05 AM GMT on February 09, 2016 (4:05 AM EST):
No AIRMET is currently available for this location.
SIGMET - Significant Meteorological Information
KIZG - Fryeburg, Maine
Updated at 9:05 AM GMT on February 09, 2016 (4:05 AM EST):
No SIGMET is currently available for this location.
NOTAM - Notice to Airmen
KIZG - Fryeburg, Maine
Updated at 9:05 AM GMT on February 09, 2016 (4:05 AM EST):
No NOTAM is currently available for this location.
Forecast Area
KIZG - Fryeburg, Maine
Updated at 9:05 AM GMT on February 09, 2016 (4:05 AM EST):
No NOTAM is currently available for this location.
Aviation Weather Maps